createdAt,value
2019-05-29T00:00:05.762Z,15.10
2019-05-29T00:02:34.734Z,13.62
2019-05-29T00:05:04.531Z,15.32
2019-05-29T00:07:33.030Z,15.93
2019-05-29T00:10:01.852Z,15.03
2019-05-29T00:12:30.377Z,15.18
2019-05-29T00:14:58.831Z,11.85
2019-05-29T00:17:27.304Z,13.43
2019-05-29T00:19:55.831Z,17.07
2019-05-29T00:22:24.305Z,15.18
2019-05-29T00:24:53.051Z,16.25
2019-05-29T00:27:21.527Z,15.68
2019-05-29T00:29:49.984Z,15.32
2019-05-29T00:32:18.820Z,17.77
2019-05-29T00:34:47.712Z,17.07
2019-05-29T00:37:16.721Z,16.40
2019-05-29T00:39:45.311Z,20.35
2019-05-29T00:42:14.853Z,17.92
2019-05-29T00:44:43.971Z,22.98
2019-05-29T00:47:13.593Z,21.37
2019-05-29T00:49:42.620Z,22.77
2019-05-29T00:52:12.226Z,23.77
2019-05-29T00:54:41.129Z,24.70
2019-05-29T00:57:10.882Z,25.85
2019-05-29T00:59:39.836Z,24.43
2019-05-29T01:02:09.466Z,27.42
2019-05-29T01:04:38.443Z,25.17
2019-05-29T01:07:06.902Z,27.25
2019-05-29T01:09:35.380Z,28.92
2019-05-29T01:12:04.215Z,28.32
2019-05-29T01:14:33.106Z,24.80
2019-05-29T01:17:01.638Z,22.90
2019-05-29T01:19:30.285Z,24.92
2019-05-29T01:21:58.753Z,30.27
2019-05-29T01:24:27.299Z,29.37
2019-05-29T01:26:55.762Z,24.45
2019-05-29T01:29:24.318Z,25.70
2019-05-29T01:31:53.543Z,27.80
2019-05-29T01:34:22.066Z,32.90
2019-05-29T01:36:50.556Z,25.68
2019-05-29T01:39:19.430Z,29.85
2019-05-29T01:41:47.931Z,25.75
2019-05-29T01:44:17.425Z,31.15
2019-05-29T01:46:46.043Z,30.85
2019-05-29T01:49:16.014Z,29.15
2019-05-29T01:51:44.740Z,30.57
2019-05-29T01:54:13.219Z,32.48
2019-05-29T01:56:41.980Z,25.32
2019-05-29T01:59:10.531Z,24.07
2019-05-29T02:01:38.991Z,23.07
2019-05-29T02:04:07.846Z,22.75
2019-05-29T02:06:36.736Z,20.88
2019-05-29T02:09:06.957Z,25.00
2019-05-29T02:11:35.860Z,20.97
2019-05-29T02:14:04.756Z,23.27
2019-05-29T02:16:33.217Z,21.37
2019-05-29T02:19:01.703Z,25.72
2019-05-29T02:21:30.519Z,24.52
2019-05-29T02:23:58.995Z,26.73
2019-05-29T02:26:27.452Z,27.20
2019-05-29T02:28:55.933Z,28.00
2019-05-29T02:31:26.579Z,22.27
2019-05-29T02:33:54.775Z,21.40
2019-05-29T02:36:24.557Z,24.92
2019-05-29T02:38:53.806Z,25.27
2019-05-29T02:41:24.158Z,27.75
2019-05-29T02:43:52.829Z,28.52
2019-05-29T02:46:22.324Z,29.60
2019-05-29T02:48:52.257Z,24.77
2019-05-29T02:51:22.050Z,28.30
2019-05-29T02:53:51.063Z,22.95
2019-05-29T02:56:20.641Z,25.90
2019-05-29T02:58:49.680Z,24.10
2019-05-29T03:01:18.219Z,26.02
2019-05-29T03:03:46.687Z,30.35
2019-05-29T03:06:15.239Z,24.82
2019-05-29T03:08:44.141Z,21.15
2019-05-29T03:11:13.031Z,22.55
2019-05-29T03:13:41.920Z,19.60
2019-05-29T03:16:12.678Z,26.30
2019-05-29T03:18:41.244Z,25.80
2019-05-29T03:21:10.146Z,22.42
2019-05-29T03:23:38.942Z,23.75
2019-05-29T03:26:07.833Z,21.07
2019-05-29T03:28:37.987Z,19.60
2019-05-29T03:31:06.492Z,17.57
2019-05-29T03:33:45.075Z,20.12
2019-05-29T03:36:05.572Z,19.85
2019-05-29T03:38:35.058Z,19.20
2019-05-29T03:41:04.173Z,19.95
2019-05-29T03:43:35.545Z,18.07
2019-05-29T03:46:03.269Z,19.87
2019-05-29T03:48:32.379Z,19.15
2019-05-29T03:51:01.997Z,21.52
2019-05-29T03:53:31.591Z,22.67
2019-05-29T03:56:01.023Z,26.75
2019-05-29T03:58:30.907Z,20.88
2019-05-29T04:00:59.687Z,24.12
2019-05-29T04:03:28.989Z,21.48
2019-05-29T04:05:57.670Z,20.43
2019-05-29T04:08:27.434Z,25.17
2019-05-29T04:10:57.266Z,26.60
2019-05-29T04:13:27.490Z,21.48
2019-05-29T04:15:56.759Z,19.35
2019-05-29T04:18:27.550Z,22.27
2019-05-29T04:20:57.097Z,20.17
2019-05-29T04:23:29.949Z,20.57
2019-05-29T04:25:59.827Z,19.10
2019-05-29T04:28:30.187Z,19.50
2019-05-29T04:30:59.373Z,21.87
2019-05-29T04:33:28.265Z,17.48
2019-05-29T04:35:56.744Z,22.70
2019-05-29T04:38:25.643Z,20.27
2019-05-29T04:40:54.116Z,21.40
2019-05-29T04:43:22.929Z,23.42
2019-05-29T04:45:51.721Z,21.25
2019-05-29T04:48:20.251Z,23.83
2019-05-29T04:50:48.795Z,24.65
2019-05-29T04:53:17.257Z,24.02
2019-05-29T04:55:45.808Z,23.60
2019-05-29T04:58:14.560Z,29.55
2019-05-29T05:00:58.144Z,27.82
2019-05-29T05:03:13.287Z,27.73
2019-05-29T05:05:42.067Z,32.10
2019-05-29T05:08:10.984Z,29.45
2019-05-29T05:10:41.285Z,30.45
2019-05-29T05:13:10.388Z,29.10
2019-05-29T05:15:40.618Z,25.20
2019-05-29T05:18:09.163Z,27.80
2019-05-29T05:20:38.306Z,23.50
2019-05-29T05:23:07.504Z,22.90
2019-05-29T05:25:36.356Z,26.48
2019-05-29T05:28:05.606Z,27.70
2019-05-29T05:30:34.374Z,20.62
2019-05-29T05:33:03.048Z,22.90
2019-05-29T05:35:32.605Z,26.25
2019-05-29T05:38:01.350Z,27.00
2019-05-29T05:40:30.751Z,23.32
2019-05-29T05:42:59.791Z,24.20
2019-05-29T05:45:28.586Z,24.90
2019-05-29T05:47:58.198Z,23.90
2019-05-29T05:50:27.140Z,24.05
2019-05-29T05:52:55.983Z,21.10
2019-05-29T05:55:24.511Z,24.25
2019-05-29T05:57:53.260Z,22.05
2019-05-29T06:00:31.705Z,20.82
2019-05-29T06:03:03.540Z,26.80
2019-05-29T06:05:32.431Z,26.57
2019-05-29T06:08:01.037Z,24.90
2019-05-29T06:10:29.495Z,26.12
2019-05-29T06:12:57.976Z,28.75
2019-05-29T06:15:26.507Z,26.82
2019-05-29T06:18:10.410Z,26.77
2019-05-29T06:20:25.551Z,30.48
2019-05-29T06:22:54.431Z,27.10
2019-05-29T06:25:23.060Z,37.25
2019-05-29T06:27:51.791Z,31.37
2019-05-29T06:30:20.783Z,34.15
2019-05-29T06:32:49.256Z,32.40
2019-05-29T06:35:17.779Z,25.68
2019-05-29T06:37:46.256Z,30.20
2019-05-29T06:40:17.963Z,26.12
2019-05-29T06:42:46.596Z,27.73
2019-05-29T06:45:18.569Z,31.68
2019-05-29T06:47:47.100Z,22.67
2019-05-29T06:50:15.888Z,25.45
2019-05-29T06:52:44.368Z,22.52
2019-05-29T06:55:12.904Z,24.18
2019-05-29T06:57:42.623Z,23.80
2019-05-29T07:00:11.924Z,22.73
2019-05-29T07:02:40.872Z,22.98
2019-05-29T07:05:09.451Z,24.80
2019-05-29T07:07:38.342Z,19.32
2019-05-29T07:10:07.195Z,19.42
2019-05-29T07:12:36.336Z,16.48
2019-05-29T07:15:08.003Z,18.60
2019-05-29T07:17:36.844Z,18.32
2019-05-29T07:20:06.442Z,19.05
2019-05-29T07:22:34.916Z,18.20
2019-05-29T07:25:04.615Z,17.70
2019-05-29T07:27:33.067Z,18.48
2019-05-29T07:30:01.545Z,17.23
2019-05-29T07:32:30.414Z,16.17
2019-05-29T07:35:03.543Z,17.25
2019-05-29T07:37:29.441Z,18.62
2019-05-29T07:39:57.987Z,15.75
2019-05-29T07:42:26.455Z,15.50
2019-05-29T07:44:54.935Z,18.15
2019-05-29T07:47:23.465Z,14.05
2019-05-29T07:49:52.381Z,15.98
2019-05-29T07:52:20.921Z,14.93
2019-05-29T07:54:50.058Z,13.18
2019-05-29T07:57:19.065Z,17.10
2019-05-29T07:59:48.861Z,13.38
2019-05-29T08:02:17.775Z,13.35
2019-05-29T08:04:47.200Z,12.18
2019-05-29T08:07:16.079Z,17.73
2019-05-29T08:09:45.642Z,14.25
2019-05-29T08:12:14.299Z,12.23
2019-05-29T08:14:43.755Z,11.15
2019-05-29T08:17:12.660Z,14.47
2019-05-29T08:19:57.069Z,11.68
2019-05-29T08:22:12.011Z,9.50
2019-05-29T08:24:40.716Z,12.13
2019-05-29T08:27:09.497Z,12.00
2019-05-29T08:29:38.389Z,13.85
2019-05-29T08:32:07.180Z,11.63
2019-05-29T08:34:35.987Z,9.25
2019-05-29T08:37:07.306Z,12.55
2019-05-29T08:39:36.812Z,11.35
2019-05-29T08:42:22.795Z,12.73
2019-05-29T08:44:36.156Z,10.98
2019-05-29T08:47:10.525Z,12.25
2019-05-29T08:49:35.159Z,10.65
2019-05-29T08:52:11.779Z,9.63
2019-05-29T08:54:34.157Z,12.25
2019-05-29T08:57:02.989Z,9.18
2019-05-29T08:59:31.468Z,9.00
2019-05-29T09:02:00.291Z,8.88
2019-05-29T09:04:29.481Z,10.90
2019-05-29T09:06:58.367Z,7.78
2019-05-29T09:09:26.839Z,8.88
2019-05-29T09:11:55.299Z,15.30
2019-05-29T09:14:24.187Z,13.05
2019-05-29T09:16:53.036Z,13.35
2019-05-29T09:19:22.861Z,15.23
2019-05-29T09:21:51.420Z,12.88
2019-05-29T09:24:20.936Z,16.62
2019-05-29T09:26:49.592Z,16.25
2019-05-29T09:29:21.437Z,13.62
2019-05-29T09:31:48.551Z,13.20
2019-05-29T09:34:18.620Z,17.02
2019-05-29T09:36:47.709Z,15.40
2019-05-29T09:39:16.657Z,17.35
2019-05-29T09:41:46.395Z,18.00
2019-05-29T09:44:31.283Z,14.83
2019-05-29T09:46:45.416Z,18.60
2019-05-29T09:49:15.822Z,15.40
2019-05-29T09:51:44.828Z,12.93
2019-05-29T09:54:13.672Z,15.25
2019-05-29T09:56:42.177Z,10.65
2019-05-29T09:59:10.637Z,14.95
2019-05-29T10:01:39.390Z,8.63
2019-05-29T10:04:08.276Z,10.82
2019-05-29T10:06:37.072Z,12.88
2019-05-29T10:09:08.141Z,10.45
2019-05-29T10:11:37.026Z,9.50
2019-05-29T10:14:05.821Z,13.05
2019-05-29T10:16:34.297Z,17.57
2019-05-29T10:19:03.256Z,12.10
2019-05-29T10:21:51.524Z,9.65
2019-05-29T10:24:19.989Z,12.53
2019-05-29T10:26:48.541Z,15.72
2019-05-29T10:29:17.350Z,9.05
2019-05-29T10:31:48.834Z,9.58
2019-05-29T10:34:17.839Z,8.45
2019-05-29T10:36:49.912Z,10.18
2019-05-29T10:39:16.863Z,10.20
2019-05-29T10:41:46.709Z,12.35
2019-05-29T10:44:15.300Z,10.45
2019-05-29T10:46:46.948Z,8.35
2019-05-29T10:49:14.407Z,7.35
2019-05-29T10:52:00.381Z,10.72
2019-05-29T10:54:13.832Z,7.03
2019-05-29T10:56:42.730Z,7.22
2019-05-29T10:59:11.267Z,6.90
2019-05-29T11:01:40.108Z,8.23
2019-05-29T11:04:08.980Z,7.28
2019-05-29T11:06:40.562Z,6.60
2019-05-29T11:09:08.317Z,7.70
2019-05-29T11:11:37.209Z,8.58
2019-05-29T11:14:06.104Z,6.58
2019-05-29T11:16:34.895Z,7.62
2019-05-29T11:19:03.395Z,5.95
2019-05-29T11:21:32.276Z,10.65
2019-05-29T11:24:00.734Z,6.08
2019-05-29T11:26:29.287Z,7.92
2019-05-29T11:28:58.733Z,5.08
2019-05-29T11:31:27.766Z,6.25
2019-05-29T11:33:57.156Z,7.58
2019-05-29T11:36:25.875Z,4.05
2019-05-29T11:38:56.726Z,6.60
2019-05-29T11:41:26.871Z,9.18
2019-05-29T11:43:55.407Z,6.03
2019-05-29T11:46:24.201Z,4.90
2019-05-29T11:48:53.110Z,5.40
2019-05-29T11:51:21.769Z,6.65
2019-05-29T11:53:51.461Z,4.45
2019-05-29T11:56:20.497Z,4.72
2019-05-29T11:58:49.291Z,5.30
2019-05-29T12:01:18.092Z,4.72
2019-05-29T12:04:09.333Z,5.95
2019-05-29T12:06:17.043Z,7.00
2019-05-29T12:08:45.522Z,6.83
2019-05-29T12:11:14.047Z,6.17
2019-05-29T12:13:42.520Z,3.47
2019-05-29T12:16:11.335Z,2.80
2019-05-29T12:18:40.244Z,4.12
2019-05-29T12:21:08.699Z,5.60
2019-05-29T12:23:37.181Z,3.40
2019-05-29T12:26:19.745Z,4.58
2019-05-29T12:28:36.331Z,5.65
2019-05-29T12:31:05.136Z,10.58
2019-05-29T12:33:33.612Z,9.68
2019-05-29T12:36:03.314Z,4.20
2019-05-29T12:38:31.933Z,5.25
2019-05-29T12:41:01.804Z,6.65
2019-05-29T12:43:30.877Z,9.33
2019-05-29T12:46:00.106Z,6.37
2019-05-29T12:48:28.791Z,1.92
2019-05-29T12:50:58.260Z,2.50
2019-05-29T12:53:30.742Z,5.08
2019-05-29T12:55:58.324Z,7.03
2019-05-29T12:58:26.971Z,4.70
2019-05-29T13:00:56.443Z,3.90
2019-05-29T13:03:25.100Z,8.43
2019-05-29T13:05:54.164Z,3.47
2019-05-29T13:08:22.800Z,6.40
2019-05-29T13:10:51.548Z,3.08
2019-05-29T13:13:19.687Z,2.72
2019-05-29T13:15:48.420Z,2.22
2019-05-29T13:18:16.966Z,3.60
2019-05-29T13:20:45.559Z,4.12
2019-05-29T13:23:14.430Z,3.55
2019-05-29T13:25:42.923Z,4.95
2019-05-29T13:28:11.872Z,7.58
2019-05-29T13:30:40.663Z,2.45
2019-05-29T13:33:09.476Z,6.17
2019-05-29T13:35:37.992Z,0.95
2019-05-29T13:38:07.383Z,3.75
2019-05-29T13:40:36.012Z,3.17
2019-05-29T13:43:13.071Z,5.40
2019-05-29T13:45:35.573Z,2.02
2019-05-29T13:48:05.425Z,5.10
2019-05-29T13:50:34.107Z,6.72
2019-05-29T13:53:03.558Z,3.35
2019-05-29T13:55:32.247Z,2.25
2019-05-29T13:58:01.661Z,4.25
2019-05-29T14:00:34.279Z,3.65
2019-05-29T14:03:02.451Z,3.62
2019-05-29T14:05:31.389Z,3.60
2019-05-29T14:08:00.624Z,3.52
2019-05-29T14:10:29.591Z,4.17
2019-05-29T14:12:58.911Z,3.12
2019-05-29T14:15:27.743Z,4.47
2019-05-29T14:17:56.203Z,3.80
2019-05-29T14:20:24.816Z,4.28
2019-05-29T14:22:53.275Z,3.25
2019-05-29T14:25:22.091Z,3.37
2019-05-29T14:27:50.539Z,6.28
2019-05-29T14:30:19.756Z,4.92
2019-05-29T14:32:48.208Z,4.60
2019-05-29T14:35:17.160Z,1.47
2019-05-29T14:37:45.611Z,2.47
2019-05-29T14:40:14.432Z,5.45
2019-05-29T14:42:42.955Z,1.95
2019-05-29T14:45:12.498Z,3.15
2019-05-29T14:47:41.638Z,2.83
2019-05-29T14:50:11.256Z,7.40
2019-05-29T14:52:41.470Z,2.72
2019-05-29T14:55:16.081Z,1.95
2019-05-29T14:57:40.804Z,2.22
2019-05-29T15:00:23.176Z,2.85
2019-05-29T15:02:42.575Z,5.33
2019-05-29T15:05:12.041Z,1.62
2019-05-29T15:07:41.400Z,1.75
2019-05-29T15:10:22.806Z,2.47
2019-05-29T15:12:41.963Z,1.05
2019-05-29T15:15:13.543Z,2.85
2019-05-29T15:17:41.835Z,3.08
2019-05-29T15:20:12.625Z,4.75
2019-05-29T15:22:42.242Z,6.87
2019-05-29T15:25:19.669Z,2.22
2019-05-29T15:27:41.565Z,1.37
2019-05-29T15:30:14.494Z,3.20
2019-05-29T15:32:41.650Z,3.67
2019-05-29T15:35:14.891Z,2.58
2019-05-29T15:37:41.363Z,2.45
2019-05-29T15:40:12.882Z,4.10
2019-05-29T15:42:41.504Z,2.10
2019-05-29T15:45:13.881Z,3.83
2019-05-29T15:47:42.563Z,2.52
2019-05-29T15:50:13.573Z,4.92
2019-05-29T15:52:42.799Z,2.72
2019-05-29T15:55:24.888Z,3.60
2019-05-29T15:57:42.348Z,4.03
2019-05-29T16:00:13.703Z,2.08
2019-05-29T16:02:42.368Z,0.60
2019-05-29T16:05:13.157Z,2.55
2019-05-29T16:07:41.735Z,4.05
2019-05-29T16:10:14.786Z,5.35
2019-05-29T16:12:43.072Z,5.90
2019-05-29T16:15:13.272Z,1.60
2019-05-29T16:17:42.283Z,3.72
2019-05-29T16:20:12.303Z,2.08
2019-05-29T16:22:41.019Z,4.90
2019-05-29T16:25:12.782Z,5.30
2019-05-29T16:27:41.466Z,5.37
2019-05-29T16:30:11.788Z,2.22
2019-05-29T16:32:40.326Z,5.00
2019-05-29T16:35:09.456Z,3.20
2019-05-29T16:37:38.364Z,2.92
2019-05-29T16:40:11.796Z,3.45
2019-05-29T16:42:40.864Z,4.87
2019-05-29T16:45:12.071Z,2.45
2019-05-29T16:47:40.712Z,7.08
2019-05-29T16:50:10.520Z,5.45
2019-05-29T16:52:39.000Z,6.28
2019-05-29T16:55:08.160Z,2.98
2019-05-29T16:57:37.002Z,2.70
2019-05-29T17:00:10.203Z,2.52
2019-05-29T17:02:39.463Z,4.97
2019-05-29T17:05:08.455Z,3.40
2019-05-29T17:07:37.392Z,3.27
2019-05-29T17:10:06.755Z,7.70
2019-05-29T17:12:35.220Z,7.05
2019-05-29T17:15:05.380Z,14.30
2019-05-29T17:17:34.118Z,4.25
2019-05-29T17:20:03.505Z,1.95
2019-05-29T17:22:32.028Z,6.30
2019-05-29T17:25:00.784Z,3.00
2019-05-29T17:27:29.572Z,7.70
2019-05-29T17:29:58.359Z,1.95
2019-05-29T17:32:27.161Z,6.78
2019-05-29T17:34:55.608Z,6.12
2019-05-29T17:37:25.174Z,4.55
2019-05-29T17:39:53.939Z,5.67
2019-05-29T17:42:22.628Z,4.37
2019-05-29T17:44:51.351Z,4.33
2019-05-29T17:47:20.125Z,2.77
2019-05-29T17:49:49.018Z,2.15
2019-05-29T17:52:17.812Z,4.45
2019-05-29T17:54:46.343Z,4.67
2019-05-29T17:57:16.493Z,3.05
2019-05-29T17:59:45.072Z,3.27
2019-05-29T18:02:13.895Z,2.67
2019-05-29T18:04:42.356Z,7.85
2019-05-29T18:07:10.833Z,5.10
2019-05-29T18:09:58.619Z,3.47
2019-05-29T18:12:27.240Z,1.95
2019-05-29T18:14:56.188Z,4.83
2019-05-29T18:17:25.482Z,2.98
2019-05-29T18:19:54.376Z,3.50
2019-05-29T18:22:23.686Z,3.10
2019-05-29T18:24:52.304Z,3.17
2019-05-29T18:27:21.879Z,2.98
2019-05-29T18:29:50.794Z,3.85
2019-05-29T18:32:20.308Z,6.92
2019-05-29T18:34:51.739Z,3.67
2019-05-29T18:37:20.090Z,2.90
2019-05-29T18:39:48.720Z,3.62
2019-05-29T18:42:17.511Z,5.85
2019-05-29T18:44:45.958Z,7.92
2019-05-29T18:47:14.688Z,8.73
2019-05-29T18:49:43.136Z,4.62
2019-05-29T18:52:11.594Z,4.47
2019-05-29T18:54:40.131Z,4.25
2019-05-29T18:57:15.373Z,8.03
2019-05-29T18:59:38.780Z,7.65
2019-05-29T19:02:07.389Z,7.42
2019-05-29T19:04:36.139Z,6.70
2019-05-29T19:07:04.751Z,9.40
2019-05-29T19:09:33.292Z,5.00
2019-05-29T19:12:01.747Z,8.53
2019-05-29T19:14:30.290Z,7.08
2019-05-29T19:16:59.079Z,7.00
2019-05-29T19:19:28.346Z,6.10
2019-05-29T19:21:56.975Z,5.75
2019-05-29T19:24:26.548Z,4.65
2019-05-29T19:26:55.223Z,6.70
2019-05-29T19:29:24.893Z,4.28
2019-05-29T19:31:53.471Z,5.40
2019-05-29T19:34:23.248Z,4.25
2019-05-29T19:36:51.788Z,8.53
2019-05-29T19:39:20.251Z,7.80
2019-05-29T19:41:48.699Z,9.20
2019-05-29T19:44:17.545Z,9.60
2019-05-29T19:46:53.794Z,18.92
2019-05-29T19:49:16.189Z,5.80
2019-05-29T19:51:44.639Z,6.67
2019-05-29T19:54:13.432Z,6.03
2019-05-29T19:56:41.880Z,7.83
2019-05-29T19:59:10.351Z,7.53
2019-05-29T20:01:40.467Z,7.78
2019-05-29T20:04:08.988Z,7.37
2019-05-29T20:06:37.805Z,7.05
2019-05-29T20:09:07.912Z,8.28
2019-05-29T20:11:37.812Z,5.08
2019-05-29T20:14:07.655Z,10.98
2019-05-29T20:16:36.368Z,4.40
2019-05-29T20:19:05.247Z,9.78
2019-05-29T20:21:34.733Z,5.55
2019-05-29T20:24:23.096Z,7.67
2019-05-29T20:26:51.625Z,10.68
2019-05-29T20:29:20.166Z,9.90
2019-05-29T20:31:48.615Z,6.83
2019-05-29T20:34:18.885Z,7.33
2019-05-29T20:36:47.399Z,6.72
2019-05-29T20:39:16.159Z,6.25
2019-05-29T20:41:44.884Z,8.75
2019-05-29T20:44:13.368Z,12.98
2019-05-29T20:46:42.788Z,11.90
2019-05-29T20:49:11.331Z,7.35
2019-05-29T20:51:40.295Z,9.00
2019-05-29T20:54:08.944Z,11.70
2019-05-29T20:56:37.739Z,11.80
2019-05-29T20:59:06.708Z,11.20
2019-05-29T21:01:43.018Z,7.85
2019-05-29T21:04:05.828Z,9.95
2019-05-29T21:06:34.598Z,14.18
2019-05-29T21:09:03.437Z,10.40
2019-05-29T21:11:33.311Z,9.40
2019-05-29T21:14:02.823Z,12.13
2019-05-29T21:16:31.658Z,23.92
2019-05-29T21:19:00.188Z,10.53
2019-05-29T21:21:29.015Z,22.58
2019-05-29T21:23:57.471Z,11.00
2019-05-29T21:26:26.300Z,10.13
2019-05-29T21:28:55.192Z,14.18
2019-05-29T21:31:23.659Z,10.05
2019-05-29T21:33:52.108Z,9.95
2019-05-29T21:36:20.588Z,12.53
2019-05-29T21:38:49.110Z,10.72
2019-05-29T21:41:17.590Z,14.30
2019-05-29T21:43:46.976Z,9.33
2019-05-29T21:46:15.684Z,11.28
2019-05-29T21:48:45.225Z,15.58
2019-05-29T21:51:13.860Z,12.40
2019-05-29T21:53:43.357Z,11.12
2019-05-29T21:56:12.059Z,10.35
2019-05-29T21:58:57.281Z,7.78
2019-05-29T22:01:11.447Z,12.40
2019-05-29T22:03:40.362Z,12.70
2019-05-29T22:06:09.236Z,11.10
2019-05-29T22:08:38.738Z,10.48
2019-05-29T22:11:07.582Z,12.10
2019-05-29T22:13:36.233Z,12.40
2019-05-29T22:16:04.699Z,15.28
2019-05-29T22:18:33.147Z,12.23
2019-05-29T22:21:01.733Z,11.53
2019-05-29T22:23:30.255Z,9.78
2019-05-29T22:25:59.444Z,9.80
2019-05-29T22:28:28.132Z,14.73
2019-05-29T22:30:57.331Z,10.75
2019-05-29T22:33:25.989Z,12.70
2019-05-29T22:35:55.703Z,15.50
2019-05-29T22:38:24.286Z,11.93
2019-05-29T22:40:53.847Z,13.10
2019-05-29T22:43:22.452Z,14.03
2019-05-29T22:45:51.496Z,12.93
2019-05-29T22:48:20.147Z,12.13
2019-05-29T22:50:48.619Z,12.00
2019-05-29T22:53:17.067Z,16.77
2019-05-29T22:55:45.536Z,15.72
2019-05-29T22:58:13.992Z,18.92
2019-05-29T23:00:42.997Z,13.22
2019-05-29T23:03:11.889Z,15.43
2019-05-29T23:05:40.411Z,14.30
2019-05-29T23:08:09.176Z,16.05
2019-05-29T23:10:37.623Z,9.23
2019-05-29T23:13:06.450Z,10.78
2019-05-29T23:15:34.971Z,10.93
2019-05-29T23:18:03.820Z,11.78
2019-05-29T23:20:32.527Z,15.03
2019-05-29T23:23:00.999Z,17.10
2019-05-29T23:25:29.520Z,13.85
2019-05-29T23:27:58.988Z,11.25
2019-05-29T23:30:30.452Z,11.10
2019-05-29T23:32:58.994Z,16.80
2019-05-29T23:35:27.635Z,14.40
2019-05-29T23:37:57.008Z,11.43
2019-05-29T23:40:25.545Z,18.30
2019-05-29T23:42:55.332Z,17.12
2019-05-29T23:45:24.219Z,14.18
2019-05-29T23:47:53.389Z,15.70
2019-05-29T23:50:22.323Z,19.20
2019-05-29T23:52:50.796Z,18.57
2019-05-29T23:55:19.807Z,12.53
2019-05-29T23:57:48.604Z,13.58
